Terminal Aerodrome Forecast
Issued by NWS Charleston, WV

Current Version | Previous Version | Graphics & Text | Print | Product List | Glossary On
Versions: 1 2 3 4 5 6 7 8 9 10 11 12 13 14 15 16 17 18 19 20 21 22 23 24 25 26 27 28
446
FTUS41 KRLX 281741
TAFCRW
TAF
KCRW 281741Z 2818/2918 28008G14KT P6SM SCT010 BKN015 OVC035
     FM290100 33004KT P6SM BKN008 OVC015
     FM291300 03003KT P6SM OVC015=

USA.gov is the U.S. government's official web portal to all federal, state and local government web resources and services.